Time;durP1;ratioP1;P1;durP2;ratioP2;P2;SDS_P1;SDS_P2;PMS_P1;PMS_P2;Temp;Humidity;BMP_temperature;BMP_pressure;BME280_temperature;BME280_humidity;BME280_pressure;Samples;Min_cycle;Max_cycle;Signal;HPM_P1;HPM_P2
2022/05/24 00:01:06;;;;;;;4.43;2.50;;;18.90;99.90;;;;;;5133026;27;20208;-71
2022/05/24 00:03:31;;;;;;;4.38;2.28;;;18.90;99.90;;;;;;5132972;27;20193;-71
2022/05/24 00:05:57;;;;;;;3.42;2.55;;;18.80;99.90;;;;;;5133020;27;20193;-71
2022/05/24 00:08:23;;;;;;;4.28;2.70;;;18.90;99.90;;;;;;5132055;27;20617;-71
2022/05/24 00:10:48;;;;;;;4.05;2.38;;;18.90;99.90;;;;;;5133616;27;20272;-71
2022/05/24 00:13:14;;;;;;;5.32;2.15;;;18.80;99.90;;;;;;5114490;27;20216;-70
2022/05/24 00:15:40;;;;;;;4.93;2.70;;;18.80;99.90;;;;;;5131218;27;20227;-71
2022/05/24 00:18:12;;;;;;;6.10;3.03;;;18.80;99.90;;;;;;5113867;27;20193;-71
2022/05/24 00:20:42;;;;;;;3.35;2.20;;;18.80;99.90;;;;;;5113989;27;20216;-70
2022/05/24 00:23:09;;;;;;;3.92;2.70;;;18.80;99.90;;;;;;5139005;22;20225;-72
2022/05/24 00:25:38;;;;;;;3.38;2.50;;;18.80;99.90;;;;;;5113295;27;20224;-74
2022/05/24 00:28:05;;;;;;;4.40;2.58;;;18.70;99.90;;;;;;5132242;27;20233;-73
2022/05/24 00:30:31;;;;;;;5.20;2.53;;;18.70;99.90;;;;;;5131688;27;20207;-73
2022/05/24 00:32:57;;;;;;;7.30;2.50;;;18.70;99.90;;;;;;5132964;27;20208;-73
2022/05/24 00:35:22;;;;;;;4.05;2.45;;;18.60;99.90;;;;;;5114173;27;20645;-73
2022/05/24 00:37:48;;;;;;;2.33;2.10;;;18.60;99.90;;;;;;5111088;28;20231;-73
2022/05/24 00:40:34;;;;;;;3.25;2.75;;;18.60;99.90;;;;;;5110610;28;20284;-73
2022/05/24 00:43:06;;;;;;;5.30;2.42;;;18.70;99.90;;;;;;5111009;28;20212;-74
2022/05/24 00:45:36;;;;;;;5.63;2.97;;;18.70;99.90;;;;;;5112584;27;20197;-74
2022/05/24 00:48:06;;;;;;;3.40;2.25;;;18.60;99.90;;;;;;5111452;27;20716;-74
2022/05/24 00:50:37;;;;;;;4.35;2.50;;;18.70;99.90;;;;;;5111981;27;20233;-74
2022/05/24 00:53:15;;;;;;;3.67;2.40;;;18.60;99.90;;;;;;5112335;28;20228;-74
2022/05/24 00:55:56;;;;;;;4.65;2.70;;;18.60;99.90;;;;;;5112375;28;20237;-74
2022/05/24 00:58:43;;;;;;;6.35;2.47;;;18.60;99.90;;;;;;5109760;28;20292;-73
2022/05/24 01:01:19;;;;;;;8.35;2.78;;;18.60;99.90;;;;;;5112042;27;20201;-73
2022/05/24 01:03:45;;;;;;;5.68;2.97;;;18.60;99.90;;;;;;5110741;27;20642;-74
2022/05/24 01:06:11;;;;;;;5.32;2.83;;;18.60;99.90;;;;;;5111844;27;20280;-73
2022/05/24 01:08:36;;;;;;;4.10;2.70;;;18.70;99.90;;;;;;5111309;27;20217;-73
2022/05/24 01:11:03;;;;;;;10.82;2.47;;;18.60;99.90;;;;;;5112571;28;20166;-73
2022/05/24 01:13:30;;;;;;;4.43;2.92;;;18.60;99.90;;;;;;5111796;27;20209;-74
2022/05/24 01:15:56;;;;;;;4.53;3.08;;;18.60;99.90;;;;;;5111610;27;20245;-73
2022/05/24 01:18:24;;;;;;;3.35;2.55;;;18.50;99.90;;;;;;5110858;27;20279;-74
2022/05/24 01:20:55;;;;;;;7.18;3.13;;;18.50;99.90;;;;;;5124288;27;20261;-73
2022/05/24 01:23:24;;;;;;;4.15;2.72;;;18.50;99.90;;;;;;5131811;27;20715;-73
2022/05/24 01:25:58;;;;;;;3.80;2.88;;;18.50;99.90;;;;;;5131252;27;20168;-73
2022/05/24 01:28:34;;;;;;;4.07;3.08;;;18.50;99.90;;;;;;5130785;27;20264;-72
2022/05/24 01:31:01;;;;;;;3.40;2.70;;;18.50;99.90;;;;;;5130784;27;20231;-73
2022/05/24 01:36:11;;;;;;;5.15;2.50;;;18.60;99.90;;;;;;5132102;27;20288;-74
2022/05/24 01:38:40;;;;;;;5.38;2.70;;;18.60;99.90;;;;;;5129834;28;20295;-73
2022/05/24 01:41:06;;;;;;;8.00;2.67;;;18.60;99.90;;;;;;5132345;27;20632;-73
2022/05/24 01:43:33;;;;;;;5.53;2.92;;;18.60;99.90;;;;;;5128906;27;20256;-74
2022/05/24 01:46:05;;;;;;;3.40;2.67;;;18.60;99.90;;;;;;5111487;27;20201;-74
2022/05/24 01:48:43;;;;;;;3.55;2.60;;;18.50;99.90;;;;;;5120443;27;20215;-73
2022/05/24 01:51:12;;;;;;;2.85;2.30;;;18.50;99.90;;;;;;5123465;28;20212;-73
2022/05/24 01:53:42;;;;;;;4.38;2.47;;;18.40;99.90;;;;;;5109852;28;20708;-74
2022/05/24 01:56:12;;;;;;;3.85;2.20;;;18.40;99.90;;;;;;5111820;28;20577;-73
2022/05/24 01:58:39;;;;;;;3.72;2.83;;;18.40;99.90;;;;;;5109447;28;20208;-73
2022/05/24 02:01:26;;;;;;;8.55;3.05;;;18.40;99.90;;;;;;5111261;27;20205;-75
2022/05/24 02:03:52;;;;;;;4.43;2.72;;;18.40;99.90;;;;;;5122754;28;20283;-73
2022/05/24 02:06:24;;;;;;;5.03;2.72;;;18.40;99.90;;;;;;5131647;27;20279;-74
2022/05/24 02:08:51;;;;;;;5.25;3.17;;;18.30;99.90;;;;;;5130846;27;20205;-74
2022/05/24 02:11:21;;;;;;;3.95;2.80;;;18.40;99.90;;;;;;5131459;27;20185;-73
2022/05/24 02:13:48;;;;;;;4.80;2.53;;;18.20;99.90;;;;;;5127209;27;20170;-73
2022/05/24 02:16:18;;;;;;;5.22;2.85;;;18.20;99.90;;;;;;5109728;28;20212;-73
2022/05/24 02:18:47;;;;;;;5.72;2.83;;;18.20;99.90;;;;;;5110339;27;20350;-73
2022/05/24 02:21:13;;;;;;;6.43;2.85;;;18.10;99.90;;;;;;5109496;28;20280;-73
2022/05/24 02:23:42;;;;;;;4.25;2.70;;;18.20;99.90;;;;;;5110945;27;20313;-73
2022/05/24 02:26:10;;;;;;;6.68;2.60;;;18.20;99.90;;;;;;5106562;28;20211;-72
2022/05/24 02:28:35;;;;;;;4.68;2.75;;;18.20;99.90;;;;;;5113529;28;20300;-74
2022/05/24 02:31:05;;;;;;;4.95;2.95;;;18.20;99.90;;;;;;5119369;27;20285;-72
2022/05/24 02:33:32;;;;;;;3.55;2.80;;;18.20;99.90;;;;;;5117923;28;20229;-74
2022/05/24 02:35:58;;;;;;;5.68;3.13;;;18.20;99.90;;;;;;5119872;27;20620;-74
2022/05/24 02:38:24;;;;;;;5.63;3.05;;;18.20;99.90;;;;;;5119029;27;20242;-73
2022/05/24 02:43:34;;;;;;;4.10;2.33;;;18.20;99.90;;;;;;5124483;27;20262;-74
2022/05/24 02:45:59;;;;;;;5.03;2.97;;;18.20;99.90;;;;;;5128517;27;20209;-73
2022/05/24 02:48:25;;;;;;;7.80;2.75;;;18.10;99.90;;;;;;5124556;27;20261;-73
2022/05/24 02:50:51;;;;;;;6.40;3.30;;;18.10;99.90;;;;;;5121705;27;20233;-74
2022/05/24 02:53:17;;;;;;;4.57;3.08;;;18.10;99.90;;;;;;5122579;27;20285;-74
2022/05/24 02:55:42;;;;;;;3.08;2.25;;;18.10;99.90;;;;;;5124870;27;20170;-74
2022/05/24 02:58:08;;;;;;;3.33;2.72;;;18.10;99.90;;;;;;5119382;27;20254;-74
2022/05/24 03:00:34;;;;;;;3.28;2.60;;;18.00;99.90;;;;;;5124570;27;20728;-74
2022/05/24 03:02:59;;;;;;;5.13;3.10;;;18.00;99.90;;;;;;5126721;27;20219;-74
2022/05/24 03:05:26;;;;;;;5.43;3.22;;;18.00;99.90;;;;;;5124374;27;20180;-73
2022/05/24 03:10:37;;;;;;;5.38;3.13;;;17.90;99.90;;;;;;5124731;27;20275;-74
2022/05/24 03:15:48;;;;;;;4.43;3.53;;;17.80;99.90;;;;;;5114275;27;20766;-73
2022/05/24 03:18:17;;;;;;;6.43;3.70;;;17.80;99.90;;;;;;5121587;27;20197;-73
2022/05/24 03:20:43;;;;;;;6.57;3.25;;;17.70;99.90;;;;;;5123951;27;20197;-73
2022/05/24 03:23:09;;;;;;;5.25;3.45;;;17.70;99.90;;;;;;5125390;27;20745;-73
2022/05/24 03:25:35;;;;;;;4.53;3.17;;;17.70;99.90;;;;;;5125976;27;20181;-72
2022/05/24 03:28:03;;;;;;;5.47;3.60;;;17.70;99.90;;;;;;5120988;27;20247;-72
2022/05/24 03:30:29;;;;;;;4.22;3.33;;;17.70;99.90;;;;;;5123176;27;20197;-73
2022/05/24 03:32:54;;;;;;;5.88;3.70;;;17.70;99.90;;;;;;5125480;27;20208;-72
2022/05/24 03:35:20;;;;;;;7.85;3.45;;;17.80;99.90;;;;;;5125563;27;20604;-72
2022/05/24 03:37:45;;;;;;;3.67;3.20;;;17.70;99.90;;;;;;5113782;27;20180;-73
2022/05/24 03:40:11;;;;;;;6.35;3.95;;;17.80;99.90;;;;;;5121394;27;20225;-72
2022/05/24 03:42:38;;;;;;;5.60;3.75;;;17.80;99.90;;;;;;5123827;27;20210;-72
2022/05/24 03:45:05;;;;;;;4.88;3.08;;;17.80;99.90;;;;;;5125410;27;20245;-71
2022/05/24 03:47:31;;;;;;;5.20;3.65;;;17.80;99.90;;;;;;5123597;27;20316;-73
2022/05/24 03:49:56;;;;;;;5.65;3.75;;;17.70;99.90;;;;;;5121037;27;20658;-72
2022/05/24 03:52:22;;;;;;;6.38;3.80;;;17.70;99.90;;;;;;5120336;27;20649;-71
2022/05/24 03:54:47;;;;;;;6.68;3.50;;;17.60;99.90;;;;;;5125212;27;20212;-72
2022/05/24 03:59:57;;;;;;;4.97;3.65;;;17.70;99.90;;;;;;5121235;27;20204;-73
2022/05/24 04:02:22;;;;;;;5.03;3.42;;;17.60;99.90;;;;;;5121737;27;20190;-73
2022/05/24 04:04:48;;;;;;;7.53;4.10;;;17.50;99.90;;;;;;5122196;27;20631;-73
2022/05/24 04:07:14;;;;;;;10.07;4.38;;;17.40;99.90;;;;;;5127672;27;20268;-73
2022/05/24 04:09:39;;;;;;;7.15;4.45;;;17.40;99.90;;;;;;5121365;27;20201;-73
2022/05/24 04:12:06;;;;;;;7.22;4.93;;;17.30;99.90;;;;;;5121436;27;20343;-72
2022/05/24 04:14:32;;;;;;;7.47;4.40;;;17.20;99.90;;;;;;5122503;27;20212;-73
2022/05/24 04:16:58;;;;;;;7.13;4.88;;;17.30;99.90;;;;;;5125160;27;20252;-73
2022/05/24 04:19:24;;;;;;;5.25;4.75;;;17.20;99.90;;;;;;5121824;27;20338;-73
2022/05/24 04:21:50;;;;;;;5.20;4.70;;;17.30;99.90;;;;;;5120910;27;20748;-73
2022/05/24 04:24:15;;;;;;;6.75;5.00;;;17.20;99.90;;;;;;5120950;27;20209;-73
2022/05/24 04:26:41;;;;;;;6.35;5.55;;;17.20;99.90;;;;;;5119576;27;20209;-73
2022/05/24 04:29:07;;;;;;;5.25;4.75;;;17.30;99.90;;;;;;5120727;27;20170;-73
2022/05/24 04:31:32;;;;;;;7.72;4.97;;;17.30;99.90;;;;;;5122483;27;20288;-73
2022/05/24 04:33:58;;;;;;;6.10;4.95;;;17.40;99.90;;;;;;5117592;27;20206;-73
2022/05/24 04:36:24;;;;;;;9.02;5.38;;;17.40;99.90;;;;;;5119603;27;20200;-73
2022/05/24 04:38:49;;;;;;;8.07;5.68;;;17.50;99.90;;;;;;5122042;27;20207;-73
2022/05/24 04:43:59;;;;;;;7.55;5.15;;;17.60;99.90;;;;;;5113784;27;20219;-73
2022/05/24 04:46:25;;;;;;;6.05;5.07;;;17.70;99.90;;;;;;5112049;27;20202;-73
2022/05/24 04:48:50;;;;;;;12.00;6.20;;;17.70;99.90;;;;;;5111405;27;20290;-72
2022/05/24 04:51:16;;;;;;;7.75;5.50;;;17.60;99.90;;;;;;5110809;28;20197;-73
2022/05/24 04:53:42;;;;;;;7.28;5.50;;;17.60;99.90;;;;;;5111957;27;20209;-73
2022/05/24 04:56:07;;;;;;;7.05;6.03;;;17.60;99.90;;;;;;5111269;28;20699;-76
2022/05/24 04:58:33;;;;;;;8.13;6.28;;;17.60;99.90;;;;;;5109906;28;20705;-73
2022/05/24 05:00:58;;;;;;;10.15;6.35;;;17.50;99.90;;;;;;5110374;28;20326;-73
2022/05/24 05:03:24;;;;;;;7.18;6.32;;;17.60;99.90;;;;;;5111479;27;20222;-73
2022/05/24 05:05:51;;;;;;;9.07;6.00;;;17.50;99.90;;;;;;5111828;27;20293;-73
2022/05/24 05:08:17;;;;;;;7.22;6.43;;;17.60;99.90;;;;;;5110947;27;20201;-71
2022/05/24 05:10:43;;;;;;;7.40;6.50;;;17.70;99.90;;;;;;5112118;28;20207;-73
2022/05/24 05:13:08;;;;;;;8.48;6.68;;;17.70;99.90;;;;;;5112196;27;20233;-74
2022/05/24 05:15:35;;;;;;;6.47;5.85;;;17.60;99.90;;;;;;5110712;28;20209;-72
2022/05/24 05:18:12;;;;;;;7.45;6.28;;;17.60;99.90;;;;;;5109758;28;20292;-72
2022/05/24 05:20:40;;;;;;;6.70;6.05;;;17.60;99.90;;;;;;5111513;27;20212;-73
2022/05/24 05:23:07;;;;;;;7.50;5.90;;;17.50;99.90;;;;;;5112135;28;20208;-73
2022/05/24 05:25:33;;;;;;;7.45;6.13;;;17.40;99.90;;;;;;5111568;28;20280;-73
2022/05/24 05:27:58;;;;;;;7.32;6.60;;;17.40;99.90;;;;;;5111178;27;20237;-73
2022/05/24 05:33:08;;;;;;;7.55;6.40;;;17.30;99.90;;;;;;5111451;27;20714;-73
2022/05/24 05:35:33;;;;;;;9.88;6.55;;;17.20;99.90;;;;;;5111212;27;20288;-73
2022/05/24 05:37:59;;;;;;;9.73;7.07;;;17.20;99.90;;;;;;5125866;28;20265;-72
2022/05/24 05:40:25;;;;;;;9.15;7.28;;;17.20;99.90;;;;;;5130558;28;20205;-73
2022/05/24 05:42:50;;;;;;;8.43;7.35;;;17.30;99.90;;;;;;5131947;27;20224;-74
2022/05/24 05:45:16;;;;;;;8.65;7.63;;;17.30;99.90;;;;;;5117403;27;20209;-73
2022/05/24 05:47:41;;;;;;;8.18;7.15;;;17.30;99.90;;;;;;5120810;28;20212;-74
2022/05/24 05:50:08;;;;;;;9.65;7.20;;;17.30;99.90;;;;;;5131950;27;20168;-73
2022/05/24 05:52:33;;;;;;;10.25;8.00;;;17.40;99.90;;;;;;5130511;28;20257;-75
2022/05/24 05:54:58;;;;;;;9.35;7.55;;;17.40;99.90;;;;;;5131923;27;20205;-73
2022/05/24 05:57:24;;;;;;;9.00;8.02;;;17.40;99.90;;;;;;5130386;28;20639;-73
2022/05/24 05:59:51;;;;;;;9.68;7.82;;;17.40;99.90;;;;;;5129837;28;20201;-73
2022/05/24 06:02:17;;;;;;;7.88;7.00;;;17.60;99.90;;;;;;5131850;27;20207;-73
2022/05/24 06:04:42;;;;;;;8.68;7.30;;;17.90;99.90;;;;;;5132196;27;20165;-74
2022/05/24 06:07:08;;;;;;;7.97;7.05;;;18.00;99.90;;;;;;5130365;28;20262;-74
2022/05/24 06:09:33;;;;;;;9.57;6.95;;;18.10;99.90;;;;;;5130857;27;20689;-74
2022/05/24 06:11:59;;;;;;;7.13;6.43;;;18.80;99.90;;;;;;5131935;27;20201;-74
2022/05/24 06:14:25;;;;;;;6.43;5.40;;;20.40;99.90;;;;;;5126640;27;20174;-74
2022/05/24 06:16:50;;;;;;;5.60;4.70;;;21.20;99.90;;;;;;5115466;28;20166;-73
2022/05/24 06:19:16;;;;;;;6.07;4.55;;;21.70;99.90;;;;;;5113139;28;20198;-74
2022/05/24 06:21:41;;;;;;;5.30;4.68;;;22.00;99.90;;;;;;5147678;22;20256;-74
2022/05/24 06:24:07;;;;;;;5.00;4.38;;;21.70;99.90;;;;;;5114854;27;20205;-75
2022/05/24 06:26:33;;;;;;;6.03;4.70;;;21.20;99.90;;;;;;5114615;28;20205;-75
2022/05/24 06:29:01;;;;;;;6.32;4.35;;;20.80;99.90;;;;;;5114522;28;20343;-74
2022/05/24 06:31:27;;;;;;;6.38;4.65;;;20.20;99.90;;;;;;5114448;28;20197;-75
2022/05/24 06:33:52;;;;;;;4.72;4.30;;;19.80;99.90;;;;;;5112959;28;20206;-75
2022/05/24 06:36:18;;;;;;;5.85;3.67;;;19.60;99.90;;;;;;5114495;28;20209;-74
2022/05/24 06:38:43;;;;;;;6.45;4.28;;;19.40;99.90;;;;;;5112284;28;20201;-75
2022/05/24 06:41:09;;;;;;;4.88;3.90;;;19.20;99.90;;;;;;5113026;28;20173;-75
2022/05/24 06:43:34;;;;;;;5.47;3.92;;;19.00;99.90;;;;;;5114467;28;20570;-75
2022/05/24 06:46:07;;;;;;;6.07;4.10;;;18.90;99.90;;;;;;5102072;28;20233;-75
2022/05/24 06:48:37;;;;;;;6.82;3.90;;;18.90;99.90;;;;;;5112002;28;20328;-75
2022/05/24 06:51:10;;;;;;;4.85;3.95;;;19.00;99.90;;;;;;5114665;28;20221;-75
2022/05/24 06:53:36;;;;;;;4.30;3.50;;;19.20;99.90;;;;;;5114488;28;20221;-75
2022/05/24 06:56:01;;;;;;;2.90;2.70;;;19.90;99.90;;;;;;5114992;28;20190;-75
2022/05/24 06:58:27;;;;;;;4.40;2.72;;;21.10;99.90;;;;;;5113407;28;20201;-75
2022/05/24 07:03:36;;;;;;;5.13;2.97;;;21.00;99.90;;;;;;5114083;28;20641;-75
2022/05/24 07:06:02;;;;;;;2.63;2.42;;;20.60;99.90;;;;;;5112837;28;20193;-75
2022/05/24 07:08:28;;;;;;;3.13;2.65;;;20.80;99.90;;;;;;5113160;28;20276;-75
2022/05/24 07:10:53;;;;;;;2.90;2.45;;;22.20;99.90;;;;;;5114348;28;20201;-75
2022/05/24 07:13:19;;;;;;;2.63;2.30;;;24.50;99.90;;;;;;5113900;27;20209;-76
2022/05/24 07:15:46;;;;;;;2.50;2.30;;;25.30;99.90;;;;;;5101088;28;20225;-76
2022/05/24 07:18:11;;;;;;;3.42;2.55;;;25.30;99.90;;;;;;5111812;28;20201;-76
2022/05/24 07:20:37;;;;;;;3.53;2.38;;;24.40;99.90;;;;;;5113566;27;20220;-76
2022/05/24 07:23:10;;;;;;;3.47;2.30;;;23.50;99.90;;;;;;5114007;28;20214;-75
2022/05/24 07:25:36;;;;;;;2.90;2.65;;;23.20;99.90;;;;;;5113043;28;20221;-75
2022/05/24 07:28:02;;;;;;;2.65;1.98;;;22.30;99.90;;;;;;5111489;28;20212;-75
2022/05/24 07:30:28;;;;;;;5.03;2.78;;;21.50;99.90;;;;;;5113439;27;20285;-75
2022/05/24 07:32:53;;;;;;;4.38;2.75;;;20.80;99.90;;;;;;5113606;27;20975;-75
2022/05/24 07:35:19;;;;;;;3.58;2.60;;;20.60;99.90;;;;;;5112085;28;20207;-75
2022/05/24 07:37:44;;;;;;;4.07;3.05;;;20.60;99.90;;;;;;5113428;28;20192;-75
2022/05/24 07:45:48;;;;;;;3.70;2.67;;;20.20;99.90;;;;;;5100651;28;20262;-75
2022/05/24 07:48:15;;;;;;;5.82;2.50;;;20.10;99.90;;;;;;5112539;28;20205;-75
2022/05/24 07:50:41;;;;;;;3.08;2.78;;;20.10;99.90;;;;;;5113095;28;20425;-75
2022/05/24 07:53:07;;;;;;;5.15;3.10;;;20.10;99.90;;;;;;5113462;28;20629;-75
2022/05/24 07:55:33;;;;;;;3.83;2.47;;;20.10;99.90;;;;;;5112983;28;20693;-74
2022/05/24 07:57:59;;;;;;;8.85;3.20;;;19.80;99.90;;;;;;5112561;28;20206;-74
2022/05/24 08:00:24;;;;;;;3.20;2.85;;;19.90;99.90;;;;;;5112871;28;20745;-75
2022/05/24 08:02:51;;;;;;;6.18;2.67;;;20.20;99.90;;;;;;5113246;28;20583;-75
2022/05/24 08:05:17;;;;;;;4.35;2.65;;;21.50;99.90;;;;;;5113027;28;20181;-75
2022/05/24 08:07:45;;;;;;;4.05;2.42;;;22.40;99.90;;;;;;5112788;28;20197;-76
2022/05/24 08:10:11;;;;;;;3.47;2.78;;;22.80;99.90;;;;;;5111175;28;20705;-76
2022/05/24 08:12:37;;;;;;;4.43;2.60;;;22.40;99.90;;;;;;5118433;28;20266;-75
2022/05/24 08:15:03;;;;;;;3.38;2.60;;;21.90;99.90;;;;;;5104628;28;20633;-75
2022/05/24 08:17:28;;;;;;;4.20;2.95;;;21.50;99.90;;;;;;5115549;27;20252;-76
2022/05/24 08:19:54;;;;;;;3.30;2.42;;;20.70;99.90;;;;;;5116913;28;20169;-75
2022/05/24 08:22:20;;;;;;;3.03;2.47;;;20.40;99.90;;;;;;5115891;28;20309;-75
2022/05/24 08:24:46;;;;;;;2.75;2.53;;;20.00;99.90;;;;;;5117544;28;20553;-76
2022/05/24 08:27:14;;;;;;;3.85;2.85;;;19.70;99.90;;;;;;5115417;27;20774;-75
2022/05/24 08:29:40;;;;;;;3.05;2.35;;;19.50;99.90;;;;;;5114101;27;20233;-75
2022/05/24 08:32:06;;;;;;;3.70;2.75;;;19.30;99.90;;;;;;5115054;28;20689;-76
2022/05/24 08:34:32;;;;;;;2.30;2.10;;;19.10;99.90;;;;;;5114318;28;20202;-76
2022/05/24 08:36:58;;;;;;;3.08;2.55;;;19.10;99.90;;;;;;5113273;28;20284;-74
2022/05/24 08:39:24;;;;;;;2.97;2.45;;;18.90;99.90;;;;;;5114080;28;20212;-76
2022/05/24 08:42:23;;;;;;;2.75;2.25;;;18.90;99.90;;;;;;5115353;28;20197;-75
2022/05/24 08:50:45;;;;;;;2.08;1.70;;;19.90;99.90;;;;;;5124726;28;20716;-75
2022/05/24 08:53:15;;;;;;;4.13;2.80;;;21.40;99.90;;;;;;5117763;28;20205;-76
2022/05/24 08:55:42;;;;;;;2.15;1.40;;;23.00;99.90;;;;;;5114078;28;20314;-76
2022/05/24 08:58:30;;;;;;;1.95;1.70;;;24.10;99.90;;;;;;5112428;28;20212;-75
2022/05/24 09:00:56;;;;;;;3.28;1.10;;;25.20;99.90;;;;;;5112789;28;20198;-76
2022/05/24 09:03:25;;;;;;;2.47;1.55;;;25.90;99.90;;;;;;5111940;28;20206;-75
2022/05/24 09:06:09;;;;;;;3.03;1.20;;;25.80;99.90;;;;;;5112140;28;20190;-75
2022/05/24 09:09:02;;;;;;;2.75;1.90;;;26.00;99.90;;;;;;5113120;28;20253;-76
2022/05/24 09:12:10;;;;;;;1.67;1.50;;;26.60;99.90;;;;;;5076462;28;20211;-75
2022/05/24 09:14:54;;;;;;;2.15;1.60;;;26.80;99.90;;;;;;5101780;28;20221;-76
2022/05/24 09:17:37;;;;;;;4.28;1.50;;;27.10;99.90;;;;;;5112426;28;20181;-75
2022/05/24 09:20:11;;;;;;;2.40;1.55;;;25.80;99.90;;;;;;5111314;28;20539;-75
2022/05/24 09:22:37;;;;;;;6.00;2.35;;;24.80;99.90;;;;;;5111721;28;20587;-75
2022/05/24 09:25:04;;;;;;;2.17;1.17;;;24.10;99.90;;;;;;5101704;28;20212;-75
2022/05/24 09:27:49;;;;;;;3.38;1.33;;;23.80;99.90;;;;;;5109698;28;20736;-75
2022/05/24 09:30:30;;;;;;;3.42;1.05;;;24.40;99.90;;;;;;5110290;28;20247;-75
2022/05/24 09:33:18;;;;;;;2.30;1.63;;;25.20;99.90;;;;;;5111925;28;20573;-75
2022/05/24 09:35:44;;;;;;;1.27;1.10;;;25.60;99.90;;;;;;5111415;28;20205;-75
2022/05/24 09:38:16;;;;;;;1.17;0.95;;;26.20;99.90;;;;;;5110796;28;20178;-75
2022/05/24 09:40:51;;;;;;;1.90;1.02;;;26.80;99.90;;;;;;5112058;28;20166;-75
2022/05/24 09:43:33;;;;;;;3.33;1.42;;;26.80;99.90;;;;;;5111196;28;20230;-75
2022/05/24 09:46:04;;;;;;;2.83;1.23;;;27.20;99.90;;;;;;5098001;28;20197;-75
2022/05/24 09:48:33;;;;;;;1.30;1.10;;;27.20;99.90;;;;;;5112682;28;20212;-75
2022/05/24 09:51:00;;;;;;;2.72;1.20;;;27.30;99.90;;;;;;5115531;28;20205;-74
2022/05/24 09:53:30;;;;;;;1.13;1.00;;;26.70;99.90;;;;;;5114202;28;20256;-75
2022/05/24 09:56:17;;;;;;;2.20;1.10;;;26.40;99.90;;;;;;5115836;28;20195;-75
2022/05/24 09:59:03;;;;;;;2.50;1.15;;;26.60;99.90;;;;;;5115062;28;20201;-75
2022/05/24 10:01:35;;;;;;;2.35;1.25;;;26.30;99.90;;;;;;5115318;28;20202;-75
2022/05/24 10:04:36;;;;;;;1.25;1.00;;;26.30;99.90;;;;;;5114500;28;20202;-75
2022/05/24 10:07:06;;;;;;;1.60;1.25;;;26.80;99.90;;;;;;5114147;28;20644;-75
2022/05/24 10:10:00;;;;;;;1.63;1.10;;;26.70;99.90;;;;;;5114448;28;20198;-74
2022/05/24 10:12:49;;;;;;;3.45;1.20;;;26.50;99.90;;;;;;5114826;28;20210;-74
2022/05/24 10:15:48;;;;;;;1.23;1.13;;;26.70;99.90;;;;;;5102724;28;20346;-75
2022/05/24 10:18:43;;;;;;;1.20;1.00;;;26.70;99.90;;;;;;5112919;28;20209;-74
2022/05/24 10:21:15;;;;;;;2.03;1.30;;;26.20;99.90;;;;;;5113800;28;20619;-75
2022/05/24 10:24:06;;;;;;;1.35;1.25;;;26.50;99.90;;;;;;5116053;28;20217;-75
2022/05/24 10:26:51;;;;;;;2.08;1.10;;;26.10;99.90;;;;;;5115948;28;20562;-75
2022/05/24 10:29:41;;;;;;;1.52;1.05;;;25.60;99.90;;;;;;5114958;28;20545;-75
2022/05/24 10:38:44;;;;;;;1.42;0.95;;;26.20;99.90;;;;;;5082273;27;20702;-75
2022/05/24 10:41:24;;;;;;;2.13;1.55;;;26.30;99.90;;;;;;5114566;28;20181;-74
2022/05/24 10:44:13;;;;;;;2.08;1.65;;;25.70;99.90;;;;;;5109733;28;20548;-75
2022/05/24 10:47:08;;;;;;;2.13;0.95;;;25.80;99.90;;;;;;5112755;28;20202;-75
2022/05/24 10:49:49;;;;;;;1.77;0.80;;;25.90;99.90;;;;;;5113760;28;20217;-75
2022/05/24 10:52:24;;;;;;;2.80;1.92;;;26.10;99.90;;;;;;5112993;28;20229;-75
2022/05/24 10:55:02;;;;;;;5.55;2.33;;;26.60;99.90;;;;;;5114316;28;20291;-75
2022/05/24 10:57:55;;;;;;;1.52;1.23;;;25.70;99.90;;;;;;5114230;27;20237;-75
2022/05/24 11:00:24;;;;;;;1.40;1.27;;;26.10;99.90;;;;;;5110913;28;20604;-76
2022/05/24 11:03:06;;;;;;;2.28;0.98;;;26.20;99.90;;;;;;5113827;28;20573;-76
2022/05/24 11:05:37;;;;;;;3.92;1.88;;;26.40;99.90;;;;;;5113848;28;20298;-76
2022/05/24 11:08:31;;;;;;;6.43;3.30;;;26.70;99.90;;;;;;5113611;28;20205;-76
2022/05/24 11:11:01;;;;;;;3.22;1.90;;;27.00;99.90;;;;;;5114169;28;20281;-76
2022/05/24 11:13:56;;;;;;;1.40;1.30;;;26.50;99.90;;;;;;5112890;28;20206;-76
2022/05/24 11:16:33;;;;;;;1.15;0.93;;;26.50;99.90;;;;;;5072411;28;20198;-76
2022/05/24 11:18:59;;;;;;;2.42;1.40;;;25.80;99.90;;;;;;5111921;28;20254;-76
2022/05/24 11:21:35;;;;;;;1.08;1.00;;;25.90;99.90;;;;;;5112162;28;20615;-76
2022/05/24 11:24:06;;;;;;;1.85;1.15;;;26.20;99.90;;;;;;5113771;27;20236;-76
2022/05/24 11:26:35;;;;;;;2.38;1.73;;;26.40;99.90;;;;;;5112071;27;20205;-76
2022/05/24 11:29:19;;;;;;;1.05;1.02;;;26.20;99.90;;;;;;5113351;28;20193;-76
2022/05/24 11:31:49;;;;;;;2.20;1.88;;;25.50;99.90;;;;;;5113643;28;20226;-76
2022/05/24 11:34:24;;;;;;;2.10;1.58;;;25.40;99.90;;;;;;5112062;28;20213;-76
2022/05/24 11:37:27;;;;;;;1.20;1.10;;;25.10;99.90;;;;;;5112187;28;20201;-76
2022/05/24 11:39:53;;;;;;;2.95;2.00;;;25.20;99.90;;;;;;5108489;27;20289;-76
2022/05/24 11:42:21;;;;;;;1.50;1.20;;;25.30;99.90;;;;;;5111876;28;20198;-76
2022/05/24 11:44:48;;;;;;;1.52;1.23;;;25.10;99.90;;;;;;5101025;28;20209;-76
2022/05/24 11:47:48;;;;;;;3.25;2.20;;;25.00;99.90;;;;;;5111991;28;20198;-76
2022/05/24 11:50:43;;;;;;;3.08;1.90;;;25.20;99.90;;;;;;5029879;28;20260;-76
2022/05/24 11:53:17;;;;;;;2.25;1.40;;;24.80;99.90;;;;;;5110678;28;20189;-76
2022/05/24 11:55:54;;;;;;;5.00;2.30;;;24.60;99.90;;;;;;5113421;28;20245;-76
2022/05/24 11:58:20;;;;;;;3.85;1.33;;;24.70;99.90;;;;;;5112362;28;20261;-75
2022/05/24 12:01:03;;;;;;;1.67;1.23;;;24.90;99.90;;;;;;5112834;28;20209;-76
2022/05/24 12:09:18;;;;;;;1.98;1.50;;;25.50;99.90;;;;;;5112082;28;20224;-76
2022/05/24 12:11:44;;;;;;;3.58;1.85;;;25.40;99.90;;;;;;5112339;28;20206;-76
2022/05/24 12:14:15;;;;;;;3.05;1.58;;;25.20;99.90;;;;;;5103140;28;20202;-76
2022/05/24 12:16:55;;;;;;;2.20;2.00;;;25.50;99.90;;;;;;5103390;28;20177;-76
2022/05/24 12:19:40;;;;;;;2.38;1.30;;;25.50;99.90;;;;;;5111862;28;20229;-76
2022/05/24 12:24:55;;;;;;;2.17;1.77;;;25.20;99.90;;;;;;5101917;28;20220;-71
2022/05/24 12:27:47;;;;;;;2.13;1.58;;;25.10;99.90;;;;;;5112301;28;20300;-70
2022/05/24 12:30:24;;;;;;;2.17;1.92;;;25.00;99.90;;;;;;5111794;28;20738;-71
2022/05/24 12:32:52;;;;;;;1.75;1.38;;;25.10;99.90;;;;;;5112092;28;20584;-71
2022/05/24 12:35:20;;;;;;;1.85;1.75;;;24.80;99.90;;;;;;5112080;28;20548;-72
2022/05/24 12:37:56;;;;;;;1.60;1.50;;;24.60;99.90;;;;;;5112195;28;20264;-72
2022/05/24 12:40:32;;;;;;;2.58;1.60;;;24.40;99.90;;;;;;5111471;28;20281;-72
2022/05/24 12:43:12;;;;;;;1.60;1.50;;;24.20;99.90;;;;;;5111893;28;20588;-72
2022/05/24 12:45:41;;;;;;;2.03;1.52;;;24.00;99.90;;;;;;5080891;28;20784;-70
2022/05/24 12:48:24;;;;;;;3.70;2.45;;;24.00;99.90;;;;;;5111128;28;20598;-71
2022/05/24 12:51:07;;;;;;;4.53;2.20;;;24.10;99.90;;;;;;5111803;28;20202;-70
2022/05/24 12:53:34;;;;;;;11.48;7.97;;;24.60;99.90;;;;;;5111526;28;20736;-70
2022/05/24 12:56:04;;;;;;;3.22;1.83;;;24.90;99.90;;;;;;5112240;28;20543;-70
2022/05/24 12:58:39;;;;;;;2.33;1.90;;;25.20;99.90;;;;;;5110788;28;20644;-72
2022/05/24 13:01:15;;;;;;;3.28;2.38;;;25.60;99.90;;;;;;5111715;28;20201;-71
2022/05/24 13:03:51;;;;;;;1.70;1.55;;;25.60;99.90;;;;;;5111664;28;20209;-71
2022/05/24 13:06:35;;;;;;;1.70;1.55;;;25.70;99.90;;;;;;5111442;28;20204;-71
2022/05/24 13:09:15;;;;;;;1.65;1.55;;;25.70;99.90;;;;;;5092531;28;20277;-72
2022/05/24 13:11:42;;;;;;;2.80;1.80;;;25.30;99.90;;;;;;5092957;28;20977;-71
2022/05/24 13:14:18;;;;;;;3.45;2.00;;;25.30;99.90;;;;;;5084044;28;20214;-72
2022/05/24 13:16:45;;;;;;;3.15;2.25;;;25.50;99.90;;;;;;5111555;28;20173;-72
2022/05/24 13:19:11;;;;;;;2.28;1.90;;;25.40;99.90;;;;;;5110552;28;20209;-72
2022/05/24 13:21:37;;;;;;;2.60;2.28;;;25.10;99.90;;;;;;5111058;28;20238;-71
2022/05/24 13:24:15;;;;;;;2.55;1.67;;;25.10;99.90;;;;;;5110507;28;20300;-71
2022/05/24 13:27:00;;;;;;;1.80;1.70;;;24.90;99.90;;;;;;5111139;28;20276;-72
2022/05/24 13:29:29;;;;;;;1.60;1.50;;;24.50;99.90;;;;;;5110470;28;20207;-72
2022/05/24 13:34:43;;;;;;;1.70;1.60;;;24.30;99.90;;;;;;5111558;28;20211;-72
2022/05/24 13:37:12;;;;;;;2.63;1.90;;;24.20;99.90;;;;;;5092979;28;20201;-72
2022/05/24 13:39:43;;;;;;;1.90;1.67;;;24.10;99.90;;;;;;5091877;28;20293;-72
2022/05/24 13:42:16;;;;;;;3.10;2.00;;;24.00;99.90;;;;;;5092927;28;20205;-72
2022/05/24 13:45:06;;;;;;;2.53;1.60;;;23.80;99.90;;;;;;5077287;28;20206;-72
2022/05/24 13:47:40;;;;;;;3.13;2.20;;;23.40;99.90;;;;;;5108867;28;20290;-72
2022/05/24 13:50:40;;;;;;;3.97;3.00;;;23.30;99.90;;;;;;5111315;28;20260;-72
2022/05/24 13:53:28;;;;;;;2.15;1.90;;;23.50;99.90;;;;;;5096964;28;20213;-72
2022/05/24 13:55:57;;;;;;;2.53;2.30;;;23.40;99.90;;;;;;5111340;28;20284;-72